sensor_id;sensor_type;location;lat;lon;timestamp;P1;durP1;ratioP1;P2;durP2;ratioP2
14348;SDS011;7258;50.376;8.742;2022-09-09T00:01:15;2.25;;;1.85;;
14348;SDS011;7258;50.376;8.742;2022-09-09T00:03:34;6.18;;;1.98;;
14348;SDS011;7258;50.376;8.742;2022-09-09T00:05:44;7.22;;;2.28;;
14348;SDS011;7258;50.376;8.742;2022-09-09T00:07:54;6.47;;;2.25;;
14348;SDS011;7258;50.376;8.742;2022-09-09T00:10:03;7.30;;;2.00;;
14348;SDS011;7258;50.376;8.742;2022-09-09T00:12:17;3.95;;;2.17;;
14348;SDS011;7258;50.376;8.742;2022-09-09T00:14:37;3.72;;;1.95;;
14348;SDS011;7258;50.376;8.742;2022-09-09T00:16:47;5.13;;;2.10;;
14348;SDS011;7258;50.376;8.742;2022-09-09T00:18:56;4.63;;;2.15;;
14348;SDS011;7258;50.376;8.742;2022-09-09T00:21:05;3.28;;;2.10;;
14348;SDS011;7258;50.376;8.742;2022-09-09T00:23:11;4.15;;;2.00;;
14348;SDS011;7258;50.376;8.742;2022-09-09T00:25:18;4.68;;;2.08;;
14348;SDS011;7258;50.376;8.742;2022-09-09T00:27:25;3.95;;;1.65;;
14348;SDS011;7258;50.376;8.742;2022-09-09T00:29:35;4.55;;;2.00;;
14348;SDS011;7258;50.376;8.742;2022-09-09T00:31:43;3.10;;;2.00;;
14348;SDS011;7258;50.376;8.742;2022-09-09T00:33:47;5.03;;;1.90;;
14348;SDS011;7258;50.376;8.742;2022-09-09T00:35:54;4.70;;;2.20;;
14348;SDS011;7258;50.376;8.742;2022-09-09T00:38:00;4.65;;;1.80;;
14348;SDS011;7258;50.376;8.742;2022-09-09T00:40:11;4.03;;;1.85;;
14348;SDS011;7258;50.376;8.742;2022-09-09T00:42:25;4.13;;;2.05;;
14348;SDS011;7258;50.376;8.742;2022-09-09T00:44:33;5.07;;;1.70;;
14348;SDS011;7258;50.376;8.742;2022-09-09T00:49:12;4.00;;;1.90;;
14348;SDS011;7258;50.376;8.742;2022-09-09T00:51:24;3.05;;;1.30;;
14348;SDS011;7258;50.376;8.742;2022-09-09T00:53:37;1.98;;;1.48;;
14348;SDS011;7258;50.376;8.742;2022-09-09T00:55:45;5.07;;;1.80;;
14348;SDS011;7258;50.376;8.742;2022-09-09T00:57:51;3.70;;;1.92;;
14348;SDS011;7258;50.376;8.742;2022-09-09T00:59:58;5.50;;;2.10;;
14348;SDS011;7258;50.376;8.742;2022-09-09T01:02:25;4.55;;;1.63;;
14348;SDS011;7258;50.376;8.742;2022-09-09T01:04:32;3.38;;;1.80;;
14348;SDS011;7258;50.376;8.742;2022-09-09T01:06:38;4.43;;;1.90;;
14348;SDS011;7258;50.376;8.742;2022-09-09T01:11:09;6.65;;;2.65;;
14348;SDS011;7258;50.376;8.742;2022-09-09T01:13:21;8.07;;;2.00;;
14348;SDS011;7258;50.376;8.742;2022-09-09T01:15:28;2.45;;;1.90;;
14348;SDS011;7258;50.376;8.742;2022-09-09T01:17:34;4.03;;;2.08;;
14348;SDS011;7258;50.376;8.742;2022-09-09T01:19:45;5.03;;;2.08;;
14348;SDS011;7258;50.376;8.742;2022-09-09T01:22:00;3.75;;;2.00;;
14348;SDS011;7258;50.376;8.742;2022-09-09T01:24:14;5.03;;;1.80;;
14348;SDS011;7258;50.376;8.742;2022-09-09T01:26:25;5.53;;;2.58;;
14348;SDS011;7258;50.376;8.742;2022-09-09T01:28:30;4.93;;;2.17;;
14348;SDS011;7258;50.376;8.742;2022-09-09T01:30:38;5.45;;;2.28;;
14348;SDS011;7258;50.376;8.742;2022-09-09T01:32:43;3.70;;;1.88;;
14348;SDS011;7258;50.376;8.742;2022-09-09T01:34:47;3.13;;;1.85;;
14348;SDS011;7258;50.376;8.742;2022-09-09T01:36:51;3.47;;;2.20;;
14348;SDS011;7258;50.376;8.742;2022-09-09T01:38:59;5.53;;;2.47;;
14348;SDS011;7258;50.376;8.742;2022-09-09T01:41:02;3.63;;;2.30;;
14348;SDS011;7258;50.376;8.742;2022-09-09T01:43:06;7.00;;;3.00;;
14348;SDS011;7258;50.376;8.742;2022-09-09T01:45:09;3.70;;;2.50;;
14348;SDS011;7258;50.376;8.742;2022-09-09T01:47:12;5.53;;;2.40;;
14348;SDS011;7258;50.376;8.742;2022-09-09T01:49:16;2.75;;;2.40;;
14348;SDS011;7258;50.376;8.742;2022-09-09T01:51:19;3.10;;;2.10;;
14348;SDS011;7258;50.376;8.742;2022-09-09T01:53:22;4.20;;;2.47;;
14348;SDS011;7258;50.376;8.742;2022-09-09T01:55:28;6.38;;;2.40;;
14348;SDS011;7258;50.376;8.742;2022-09-09T01:57:33;3.25;;;2.20;;
14348;SDS011;7258;50.376;8.742;2022-09-09T02:02:09;7.80;;;2.22;;
14348;SDS011;7258;50.376;8.742;2022-09-09T02:04:17;6.55;;;2.50;;
14348;SDS011;7258;50.376;8.742;2022-09-09T02:06:33;4.50;;;2.57;;
14348;SDS011;7258;50.376;8.742;2022-09-09T02:08:40;2.92;;;2.40;;
14348;SDS011;7258;50.376;8.742;2022-09-09T02:10:50;4.18;;;2.40;;
14348;SDS011;7258;50.376;8.742;2022-09-09T02:13:00;4.28;;;2.03;;
14348;SDS011;7258;50.376;8.742;2022-09-09T02:15:11;4.43;;;2.33;;
14348;SDS011;7258;50.376;8.742;2022-09-09T02:17:22;6.00;;;2.40;;
14348;SDS011;7258;50.376;8.742;2022-09-09T02:19:29;3.07;;;2.10;;
14348;SDS011;7258;50.376;8.742;2022-09-09T02:21:37;4.57;;;1.97;;
14348;SDS011;7258;50.376;8.742;2022-09-09T02:23:42;5.37;;;2.40;;
14348;SDS011;7258;50.376;8.742;2022-09-09T02:25:48;5.53;;;2.35;;
14348;SDS011;7258;50.376;8.742;2022-09-09T02:27:52;3.38;;;2.10;;
14348;SDS011;7258;50.376;8.742;2022-09-09T02:29:56;4.63;;;1.92;;
14348;SDS011;7258;50.376;8.742;2022-09-09T02:32:03;6.43;;;2.47;;
14348;SDS011;7258;50.376;8.742;2022-09-09T02:34:09;4.93;;;2.38;;
14348;SDS011;7258;50.376;8.742;2022-09-09T02:36:14;3.40;;;2.17;;
14348;SDS011;7258;50.376;8.742;2022-09-09T02:38:18;2.58;;;1.75;;
14348;SDS011;7258;50.376;8.742;2022-09-09T02:40:22;4.13;;;2.17;;
14348;SDS011;7258;50.376;8.742;2022-09-09T02:42:25;4.93;;;2.20;;
14348;SDS011;7258;50.376;8.742;2022-09-09T02:44:28;4.43;;;2.15;;
14348;SDS011;7258;50.376;8.742;2022-09-09T02:46:34;5.03;;;2.03;;
14348;SDS011;7258;50.376;8.742;2022-09-09T02:48:51;3.92;;;2.63;;
14348;SDS011;7258;50.376;8.742;2022-09-09T02:51:02;4.35;;;2.33;;
14348;SDS011;7258;50.376;8.742;2022-09-09T02:53:14;5.50;;;2.55;;
14348;SDS011;7258;50.376;8.742;2022-09-09T02:55:23;4.37;;;2.40;;
14348;SDS011;7258;50.376;8.742;2022-09-09T02:57:31;4.45;;;2.15;;
14348;SDS011;7258;50.376;8.742;2022-09-09T02:59:35;5.85;;;2.30;;
14348;SDS011;7258;50.376;8.742;2022-09-09T03:01:38;3.30;;;2.10;;
14348;SDS011;7258;50.376;8.742;2022-09-09T03:03:41;3.63;;;1.90;;
14348;SDS011;7258;50.376;8.742;2022-09-09T03:05:46;3.45;;;2.20;;
14348;SDS011;7258;50.376;8.742;2022-09-09T03:07:49;3.40;;;2.05;;
14348;SDS011;7258;50.376;8.742;2022-09-09T03:09:52;6.10;;;2.08;;
14348;SDS011;7258;50.376;8.742;2022-09-09T03:11:56;3.35;;;1.73;;
14348;SDS011;7258;50.376;8.742;2022-09-09T03:13:58;4.38;;;1.88;;
14348;SDS011;7258;50.376;8.742;2022-09-09T03:16:01;3.80;;;2.25;;
14348;SDS011;7258;50.376;8.742;2022-09-09T03:18:05;2.40;;;1.83;;
14348;SDS011;7258;50.376;8.742;2022-09-09T03:20:08;5.57;;;2.25;;
14348;SDS011;7258;50.376;8.742;2022-09-09T03:22:12;3.22;;;2.10;;
14348;SDS011;7258;50.376;8.742;2022-09-09T03:24:15;3.00;;;2.03;;
14348;SDS011;7258;50.376;8.742;2022-09-09T03:26:18;4.80;;;2.28;;
14348;SDS011;7258;50.376;8.742;2022-09-09T03:28:21;3.75;;;2.00;;
14348;SDS011;7258;50.376;8.742;2022-09-09T03:30:24;3.22;;;1.80;;
14348;SDS011;7258;50.376;8.742;2022-09-09T03:32:28;3.80;;;1.92;;
14348;SDS011;7258;50.376;8.742;2022-09-09T03:34:32;4.77;;;2.03;;
14348;SDS011;7258;50.376;8.742;2022-09-09T03:36:35;3.13;;;2.00;;
14348;SDS011;7258;50.376;8.742;2022-09-09T03:38:39;3.40;;;1.97;;
14348;SDS011;7258;50.376;8.742;2022-09-09T03:40:48;3.40;;;2.13;;
14348;SDS011;7258;50.376;8.742;2022-09-09T03:42:52;2.58;;;1.70;;
14348;SDS011;7258;50.376;8.742;2022-09-09T03:44:55;2.75;;;1.58;;
14348;SDS011;7258;50.376;8.742;2022-09-09T03:46:59;3.85;;;2.15;;
14348;SDS011;7258;50.376;8.742;2022-09-09T03:49:02;5.60;;;2.03;;
14348;SDS011;7258;50.376;8.742;2022-09-09T03:51:05;5.72;;;2.00;;
14348;SDS011;7258;50.376;8.742;2022-09-09T03:53:08;5.68;;;1.92;;
14348;SDS011;7258;50.376;8.742;2022-09-09T03:55:12;3.15;;;1.80;;
14348;SDS011;7258;50.376;8.742;2022-09-09T03:57:14;3.92;;;1.98;;
14348;SDS011;7258;50.376;8.742;2022-09-09T03:59:18;4.68;;;2.00;;
14348;SDS011;7258;50.376;8.742;2022-09-09T04:01:22;3.70;;;1.88;;
14348;SDS011;7258;50.376;8.742;2022-09-09T04:03:25;4.50;;;1.92;;
14348;SDS011;7258;50.376;8.742;2022-09-09T04:05:29;5.32;;;2.10;;
14348;SDS011;7258;50.376;8.742;2022-09-09T04:07:32;3.65;;;1.77;;
14348;SDS011;7258;50.376;8.742;2022-09-09T04:09:34;6.00;;;2.00;;
14348;SDS011;7258;50.376;8.742;2022-09-09T04:11:38;4.15;;;2.00;;
14348;SDS011;7258;50.376;8.742;2022-09-09T04:13:41;2.33;;;1.65;;
14348;SDS011;7258;50.376;8.742;2022-09-09T04:15:50;3.60;;;1.80;;
14348;SDS011;7258;50.376;8.742;2022-09-09T04:17:53;1.92;;;1.45;;
14348;SDS011;7258;50.376;8.742;2022-09-09T04:19:56;4.53;;;2.05;;
14348;SDS011;7258;50.376;8.742;2022-09-09T04:21:59;2.75;;;1.60;;
14348;SDS011;7258;50.376;8.742;2022-09-09T04:24:02;3.95;;;1.67;;
14348;SDS011;7258;50.376;8.742;2022-09-09T04:26:05;4.22;;;1.60;;
14348;SDS011;7258;50.376;8.742;2022-09-09T04:28:11;3.53;;;1.60;;
14348;SDS011;7258;50.376;8.742;2022-09-09T04:30:14;5.30;;;1.77;;
14348;SDS011;7258;50.376;8.742;2022-09-09T04:32:17;5.63;;;1.85;;
14348;SDS011;7258;50.376;8.742;2022-09-09T04:34:20;2.58;;;1.40;;
14348;SDS011;7258;50.376;8.742;2022-09-09T04:36:23;4.80;;;1.52;;
14348;SDS011;7258;50.376;8.742;2022-09-09T04:38:25;3.42;;;1.50;;
14348;SDS011;7258;50.376;8.742;2022-09-09T04:40:28;3.35;;;1.50;;
14348;SDS011;7258;50.376;8.742;2022-09-09T04:42:34;2.40;;;1.70;;
14348;SDS011;7258;50.376;8.742;2022-09-09T04:44:39;5.82;;;1.73;;
14348;SDS011;7258;50.376;8.742;2022-09-09T04:46:41;5.13;;;1.70;;
14348;SDS011;7258;50.376;8.742;2022-09-09T04:48:44;4.18;;;1.88;;
14348;SDS011;7258;50.376;8.742;2022-09-09T04:50:54;3.42;;;1.88;;
14348;SDS011;7258;50.376;8.742;2022-09-09T04:52:59;4.22;;;2.00;;
14348;SDS011;7258;50.376;8.742;2022-09-09T04:55:03;6.10;;;2.10;;
14348;SDS011;7258;50.376;8.742;2022-09-09T04:57:06;4.03;;;1.90;;
14348;SDS011;7258;50.376;8.742;2022-09-09T04:59:09;4.97;;;2.13;;
14348;SDS011;7258;50.376;8.742;2022-09-09T05:01:14;5.25;;;2.17;;
14348;SDS011;7258;50.376;8.742;2022-09-09T05:03:18;6.07;;;1.73;;
14348;SDS011;7258;50.376;8.742;2022-09-09T05:05:21;4.25;;;1.85;;
14348;SDS011;7258;50.376;8.742;2022-09-09T05:07:24;4.43;;;1.88;;
14348;SDS011;7258;50.376;8.742;2022-09-09T05:09:30;2.30;;;1.50;;
14348;SDS011;7258;50.376;8.742;2022-09-09T05:11:32;4.40;;;1.58;;
14348;SDS011;7258;50.376;8.742;2022-09-09T05:13:37;3.70;;;1.70;;
14348;SDS011;7258;50.376;8.742;2022-09-09T05:15:42;3.25;;;1.70;;
14348;SDS011;7258;50.376;8.742;2022-09-09T05:17:57;5.07;;;1.50;;
14348;SDS011;7258;50.376;8.742;2022-09-09T05:20:02;3.33;;;1.55;;
14348;SDS011;7258;50.376;8.742;2022-09-09T05:22:10;5.00;;;1.60;;
14348;SDS011;7258;50.376;8.742;2022-09-09T05:24:14;5.90;;;1.55;;
14348;SDS011;7258;50.376;8.742;2022-09-09T05:26:17;4.43;;;1.55;;
14348;SDS011;7258;50.376;8.742;2022-09-09T05:28:22;5.53;;;1.65;;
14348;SDS011;7258;50.376;8.742;2022-09-09T05:30:26;4.07;;;1.73;;
14348;SDS011;7258;50.376;8.742;2022-09-09T05:32:29;5.30;;;1.55;;
14348;SDS011;7258;50.376;8.742;2022-09-09T05:34:36;3.70;;;1.70;;
14348;SDS011;7258;50.376;8.742;2022-09-09T05:36:40;3.70;;;1.40;;
14348;SDS011;7258;50.376;8.742;2022-09-09T05:38:43;3.97;;;1.35;;
14348;SDS011;7258;50.376;8.742;2022-09-09T05:40:47;5.78;;;1.38;;
14348;SDS011;7258;50.376;8.742;2022-09-09T05:42:51;6.80;;;1.90;;
14348;SDS011;7258;50.376;8.742;2022-09-09T05:44:54;2.70;;;1.30;;
14348;SDS011;7258;50.376;8.742;2022-09-09T05:46:57;5.60;;;1.48;;
14348;SDS011;7258;50.376;8.742;2022-09-09T05:49:00;5.68;;;1.83;;
14348;SDS011;7258;50.376;8.742;2022-09-09T05:51:08;6.85;;;2.20;;
14348;SDS011;7258;50.376;8.742;2022-09-09T05:53:13;5.78;;;1.58;;
14348;SDS011;7258;50.376;8.742;2022-09-09T05:55:16;2.13;;;1.35;;
14348;SDS011;7258;50.376;8.742;2022-09-09T05:57:19;4.22;;;2.08;;
14348;SDS011;7258;50.376;8.742;2022-09-09T05:59:22;3.08;;;1.98;;
14348;SDS011;7258;50.376;8.742;2022-09-09T06:01:26;3.67;;;1.70;;
14348;SDS011;7258;50.376;8.742;2022-09-09T06:03:30;3.40;;;1.60;;
14348;SDS011;7258;50.376;8.742;2022-09-09T06:05:32;6.65;;;1.98;;
14348;SDS011;7258;50.376;8.742;2022-09-09T06:07:37;5.75;;;2.00;;
14348;SDS011;7258;50.376;8.742;2022-09-09T06:09:43;6.72;;;1.70;;
14348;SDS011;7258;50.376;8.742;2022-09-09T06:11:45;5.35;;;1.95;;
14348;SDS011;7258;50.376;8.742;2022-09-09T06:13:48;2.78;;;1.85;;
14348;SDS011;7258;50.376;8.742;2022-09-09T06:15:55;5.80;;;1.70;;
14348;SDS011;7258;50.376;8.742;2022-09-09T06:17:58;3.75;;;1.70;;
14348;SDS011;7258;50.376;8.742;2022-09-09T06:20:01;4.20;;;1.88;;
14348;SDS011;7258;50.376;8.742;2022-09-09T06:22:04;3.17;;;1.77;;
14348;SDS011;7258;50.376;8.742;2022-09-09T06:24:08;3.30;;;1.77;;
14348;SDS011;7258;50.376;8.742;2022-09-09T06:26:12;3.92;;;1.80;;
14348;SDS011;7258;50.376;8.742;2022-09-09T06:28:17;5.03;;;1.80;;
14348;SDS011;7258;50.376;8.742;2022-09-09T06:30:20;4.65;;;1.55;;
14348;SDS011;7258;50.376;8.742;2022-09-09T06:32:23;5.47;;;1.85;;
14348;SDS011;7258;50.376;8.742;2022-09-09T06:34:26;6.22;;;2.03;;
14348;SDS011;7258;50.376;8.742;2022-09-09T06:36:30;5.20;;;2.10;;
14348;SDS011;7258;50.376;8.742;2022-09-09T06:38:33;5.05;;;1.85;;
14348;SDS011;7258;50.376;8.742;2022-09-09T06:40:38;5.22;;;1.92;;
14348;SDS011;7258;50.376;8.742;2022-09-09T06:42:41;6.53;;;2.10;;
14348;SDS011;7258;50.376;8.742;2022-09-09T06:44:43;5.43;;;1.98;;
14348;SDS011;7258;50.376;8.742;2022-09-09T06:46:46;5.30;;;1.80;;
14348;SDS011;7258;50.376;8.742;2022-09-09T06:48:49;3.83;;;1.92;;
14348;SDS011;7258;50.376;8.742;2022-09-09T06:50:59;4.22;;;2.47;;
14348;SDS011;7258;50.376;8.742;2022-09-09T06:53:03;10.52;;;2.45;;
14348;SDS011;7258;50.376;8.742;2022-09-09T06:55:06;4.15;;;2.50;;
14348;SDS011;7258;50.376;8.742;2022-09-09T06:57:10;4.90;;;2.30;;
14348;SDS011;7258;50.376;8.742;2022-09-09T06:59:34;8.55;;;2.38;;
14348;SDS011;7258;50.376;8.742;2022-09-09T07:01:37;8.88;;;2.53;;
14348;SDS011;7258;50.376;8.742;2022-09-09T07:03:42;7.30;;;2.55;;
14348;SDS011;7258;50.376;8.742;2022-09-09T07:05:53;5.50;;;2.70;;
14348;SDS011;7258;50.376;8.742;2022-09-09T07:07:57;6.07;;;2.65;;
14348;SDS011;7258;50.376;8.742;2022-09-09T07:10:00;5.15;;;3.10;;
14348;SDS011;7258;50.376;8.742;2022-09-09T07:12:02;5.68;;;2.70;;
14348;SDS011;7258;50.376;8.742;2022-09-09T07:14:08;6.25;;;2.70;;
14348;SDS011;7258;50.376;8.742;2022-09-09T07:16:14;6.32;;;2.65;;
14348;SDS011;7258;50.376;8.742;2022-09-09T07:18:19;4.03;;;2.78;;
14348;SDS011;7258;50.376;8.742;2022-09-09T07:20:22;5.45;;;2.83;;
14348;SDS011;7258;50.376;8.742;2022-09-09T07:22:25;6.35;;;3.13;;
14348;SDS011;7258;50.376;8.742;2022-09-09T07:24:29;4.85;;;2.80;;
14348;SDS011;7258;50.376;8.742;2022-09-09T07:26:33;5.30;;;2.83;;
14348;SDS011;7258;50.376;8.742;2022-09-09T07:28:36;5.88;;;2.67;;
14348;SDS011;7258;50.376;8.742;2022-09-09T07:30:41;7.93;;;2.83;;
14348;SDS011;7258;50.376;8.742;2022-09-09T07:32:44;5.63;;;2.92;;
14348;SDS011;7258;50.376;8.742;2022-09-09T07:34:47;6.10;;;2.67;;
14348;SDS011;7258;50.376;8.742;2022-09-09T07:36:51;6.45;;;2.60;;
14348;SDS011;7258;50.376;8.742;2022-09-09T07:38:55;5.13;;;2.72;;
14348;SDS011;7258;50.376;8.742;2022-09-09T07:41:03;7.68;;;3.22;;
14348;SDS011;7258;50.376;8.742;2022-09-09T07:43:09;3.67;;;2.55;;
14348;SDS011;7258;50.376;8.742;2022-09-09T07:45:17;2.92;;;2.20;;
14348;SDS011;7258;50.376;8.742;2022-09-09T07:47:21;5.50;;;2.83;;
14348;SDS011;7258;50.376;8.742;2022-09-09T07:49:25;5.68;;;2.30;;
14348;SDS011;7258;50.376;8.742;2022-09-09T07:51:33;5.55;;;2.70;;
14348;SDS011;7258;50.376;8.742;2022-09-09T07:53:38;7.47;;;2.60;;
14348;SDS011;7258;50.376;8.742;2022-09-09T07:55:41;8.95;;;2.75;;
14348;SDS011;7258;50.376;8.742;2022-09-09T07:57:44;5.00;;;2.60;;
14348;SDS011;7258;50.376;8.742;2022-09-09T07:59:47;6.90;;;2.67;;
14348;SDS011;7258;50.376;8.742;2022-09-09T08:01:50;4.40;;;2.13;;
14348;SDS011;7258;50.376;8.742;2022-09-09T08:03:57;3.83;;;2.03;;
14348;SDS011;7258;50.376;8.742;2022-09-09T08:06:02;2.97;;;2.20;;
14348;SDS011;7258;50.376;8.742;2022-09-09T08:08:05;4.93;;;2.17;;
14348;SDS011;7258;50.376;8.742;2022-09-09T08:10:10;3.97;;;2.05;;
14348;SDS011;7258;50.376;8.742;2022-09-09T08:12:13;4.70;;;2.20;;
14348;SDS011;7258;50.376;8.742;2022-09-09T08:14:16;8.13;;;2.47;;
14348;SDS011;7258;50.376;8.742;2022-09-09T08:16:19;5.60;;;2.40;;
14348;SDS011;7258;50.376;8.742;2022-09-09T08:18:24;4.70;;;2.10;;
14348;SDS011;7258;50.376;8.742;2022-09-09T08:20:30;5.65;;;2.10;;
14348;SDS011;7258;50.376;8.742;2022-09-09T08:22:33;4.70;;;2.17;;
14348;SDS011;7258;50.376;8.742;2022-09-09T08:24:37;8.45;;;2.28;;
14348;SDS011;7258;50.376;8.742;2022-09-09T08:26:41;5.72;;;2.22;;
14348;SDS011;7258;50.376;8.742;2022-09-09T08:28:45;4.82;;;2.05;;
14348;SDS011;7258;50.376;8.742;2022-09-09T08:30:48;5.43;;;1.95;;
14348;SDS011;7258;50.376;8.742;2022-09-09T08:32:52;5.95;;;1.92;;
14348;SDS011;7258;50.376;8.742;2022-09-09T08:34:55;4.53;;;2.35;;
14348;SDS011;7258;50.376;8.742;2022-09-09T08:37:03;4.55;;;1.85;;
14348;SDS011;7258;50.376;8.742;2022-09-09T08:39:06;4.07;;;2.10;;
14348;SDS011;7258;50.376;8.742;2022-09-09T08:41:23;4.15;;;2.10;;
14348;SDS011;7258;50.376;8.742;2022-09-09T08:43:35;5.95;;;2.30;;
14348;SDS011;7258;50.376;8.742;2022-09-09T08:45:41;5.28;;;1.88;;
14348;SDS011;7258;50.376;8.742;2022-09-09T08:48:01;5.90;;;2.10;;
14348;SDS011;7258;50.376;8.742;2022-09-09T08:50:24;4.22;;;1.88;;
14348;SDS011;7258;50.376;8.742;2022-09-09T08:52:31;3.97;;;1.83;;
14348;SDS011;7258;50.376;8.742;2022-09-09T08:54:40;8.52;;;2.60;;
14348;SDS011;7258;50.376;8.742;2022-09-09T08:56:52;7.50;;;2.40;;
14348;SDS011;7258;50.376;8.742;2022-09-09T08:58:57;5.05;;;2.28;;
14348;SDS011;7258;50.376;8.742;2022-09-09T09:01:11;5.03;;;1.88;;
14348;SDS011;7258;50.376;8.742;2022-09-09T09:03:27;5.80;;;2.38;;
14348;SDS011;7258;50.376;8.742;2022-09-09T09:05:36;5.03;;;2.20;;
14348;SDS011;7258;50.376;8.742;2022-09-09T09:07:47;2.95;;;1.92;;
14348;SDS011;7258;50.376;8.742;2022-09-09T09:09:58;4.43;;;1.85;;
14348;SDS011;7258;50.376;8.742;2022-09-09T09:12:26;6.60;;;2.30;;
14348;SDS011;7258;50.376;8.742;2022-09-09T09:14:33;5.35;;;2.10;;
14348;SDS011;7258;50.376;8.742;2022-09-09T09:16:38;4.05;;;2.08;;
14348;SDS011;7258;50.376;8.742;2022-09-09T09:18:50;6.00;;;2.25;;
14348;SDS011;7258;50.376;8.742;2022-09-09T09:20:57;7.05;;;2.40;;
14348;SDS011;7258;50.376;8.742;2022-09-09T09:23:09;3.08;;;1.80;;
14348;SDS011;7258;50.376;8.742;2022-09-09T09:25:20;5.72;;;2.28;;
14348;SDS011;7258;50.376;8.742;2022-09-09T09:27:27;3.20;;;1.95;;
14348;SDS011;7258;50.376;8.742;2022-09-09T09:29:34;6.07;;;1.95;;
14348;SDS011;7258;50.376;8.742;2022-09-09T09:31:58;4.15;;;2.20;;
14348;SDS011;7258;50.376;8.742;2022-09-09T09:34:03;7.10;;;2.33;;
14348;SDS011;7258;50.376;8.742;2022-09-09T09:36:06;5.00;;;2.45;;
14348;SDS011;7258;50.376;8.742;2022-09-09T09:38:13;5.25;;;2.40;;
14348;SDS011;7258;50.376;8.742;2022-09-09T09:40:47;5.30;;;2.65;;
14348;SDS011;7258;50.376;8.742;2022-09-09T09:42:53;5.43;;;2.65;;
14348;SDS011;7258;50.376;8.742;2022-09-09T09:45:06;5.43;;;2.20;;
14348;SDS011;7258;50.376;8.742;2022-09-09T09:47:11;4.30;;;2.20;;
14348;SDS011;7258;50.376;8.742;2022-09-09T09:49:16;5.00;;;2.35;;
14348;SDS011;7258;50.376;8.742;2022-09-09T09:51:19;5.85;;;2.60;;
14348;SDS011;7258;50.376;8.742;2022-09-09T09:53:26;6.47;;;2.50;;
14348;SDS011;7258;50.376;8.742;2022-09-09T09:55:31;6.43;;;2.72;;
14348;SDS011;7258;50.376;8.742;2022-09-09T09:57:38;4.18;;;2.10;;
14348;SDS011;7258;50.376;8.742;2022-09-09T09:59:41;6.28;;;2.60;;
14348;SDS011;7258;50.376;8.742;2022-09-09T10:01:45;5.10;;;2.50;;
14348;SDS011;7258;50.376;8.742;2022-09-09T10:03:50;6.57;;;2.30;;
14348;SDS011;7258;50.376;8.742;2022-09-09T10:05:54;5.85;;;2.47;;
14348;SDS011;7258;50.376;8.742;2022-09-09T10:08:04;6.00;;;2.40;;
14348;SDS011;7258;50.376;8.742;2022-09-09T10:10:15;4.13;;;2.15;;
14348;SDS011;7258;50.376;8.742;2022-09-09T10:12:24;4.15;;;1.60;;
14348;SDS011;7258;50.376;8.742;2022-09-09T10:14:36;3.85;;;1.42;;
14348;SDS011;7258;50.376;8.742;2022-09-09T10:16:47;2.40;;;1.17;;
14348;SDS011;7258;50.376;8.742;2022-09-09T10:19:00;3.33;;;1.42;;
14348;SDS011;7258;50.376;8.742;2022-09-09T10:21:08;1.58;;;1.05;;
14348;SDS011;7258;50.376;8.742;2022-09-09T10:23:23;2.47;;;1.00;;
14348;SDS011;7258;50.376;8.742;2022-09-09T10:25:38;3.17;;;1.25;;
14348;SDS011;7258;50.376;8.742;2022-09-09T10:28:06;1.45;;;1.00;;
14348;SDS011;7258;50.376;8.742;2022-09-09T10:30:24;2.80;;;1.23;;
14348;SDS011;7258;50.376;8.742;2022-09-09T10:32:36;2.47;;;1.42;;
14348;SDS011;7258;50.376;8.742;2022-09-09T10:34:48;2.35;;;1.35;;
14348;SDS011;7258;50.376;8.742;2022-09-09T10:36:58;2.90;;;1.27;;
14348;SDS011;7258;50.376;8.742;2022-09-09T10:39:03;3.58;;;1.52;;
14348;SDS011;7258;50.376;8.742;2022-09-09T10:41:12;5.72;;;1.70;;
14348;SDS011;7258;50.376;8.742;2022-09-09T10:43:22;6.22;;;2.38;;
14348;SDS011;7258;50.376;8.742;2022-09-09T10:45:37;3.45;;;1.65;;
14348;SDS011;7258;50.376;8.742;2022-09-09T10:47:52;4.47;;;2.03;;
14348;SDS011;7258;50.376;8.742;2022-09-09T10:50:16;4.60;;;1.90;;
14348;SDS011;7258;50.376;8.742;2022-09-09T10:52:53;6.00;;;2.17;;
14348;SDS011;7258;50.376;8.742;2022-09-09T10:55:07;3.95;;;1.90;;
14348;SDS011;7258;50.376;8.742;2022-09-09T10:57:15;6.22;;;2.28;;
14348;SDS011;7258;50.376;8.742;2022-09-09T10:59:25;3.45;;;1.95;;
14348;SDS011;7258;50.376;8.742;2022-09-09T11:01:32;5.03;;;2.00;;
14348;SDS011;7258;50.376;8.742;2022-09-09T11:03:39;5.60;;;1.80;;
14348;SDS011;7258;50.376;8.742;2022-09-09T11:05:43;3.17;;;1.73;;
14348;SDS011;7258;50.376;8.742;2022-09-09T11:07:49;4.30;;;1.70;;
14348;SDS011;7258;50.376;8.742;2022-09-09T11:09:58;5.40;;;1.35;;
14348;SDS011;7258;50.376;8.742;2022-09-09T11:12:05;4.07;;;1.88;;
14348;SDS011;7258;50.376;8.742;2022-09-09T11:14:18;4.90;;;1.70;;
14348;SDS011;7258;50.376;8.742;2022-09-09T11:16:27;3.58;;;1.42;;
14348;SDS011;7258;50.376;8.742;2022-09-09T11:18:33;3.45;;;1.90;;
14348;SDS011;7258;50.376;8.742;2022-09-09T11:20:41;3.90;;;1.50;;
14348;SDS011;7258;50.376;8.742;2022-09-09T11:22:46;3.78;;;1.63;;
14348;SDS011;7258;50.376;8.742;2022-09-09T11:24:56;5.63;;;2.13;;
14348;SDS011;7258;50.376;8.742;2022-09-09T11:27:06;2.95;;;1.55;;
14348;SDS011;7258;50.376;8.742;2022-09-09T11:29:25;2.72;;;1.75;;
14348;SDS011;7258;50.376;8.742;2022-09-09T11:31:44;5.30;;;2.10;;
14348;SDS011;7258;50.376;8.742;2022-09-09T11:34:03;5.15;;;1.90;;
14348;SDS011;7258;50.376;8.742;2022-09-09T11:36:21;4.18;;;1.67;;
14348;SDS011;7258;50.376;8.742;2022-09-09T11:38:41;3.30;;;1.83;;
14348;SDS011;7258;50.376;8.742;2022-09-09T11:40:53;3.70;;;1.88;;
14348;SDS011;7258;50.376;8.742;2022-09-09T11:43:01;5.63;;;1.90;;
14348;SDS011;7258;50.376;8.742;2022-09-09T11:45:22;3.28;;;1.63;;
14348;SDS011;7258;50.376;8.742;2022-09-09T11:47:30;3.00;;;1.70;;
14348;SDS011;7258;50.376;8.742;2022-09-09T11:49:40;3.72;;;1.63;;
14348;SDS011;7258;50.376;8.742;2022-09-09T11:51:43;4.90;;;1.70;;
14348;SDS011;7258;50.376;8.742;2022-09-09T11:53:48;3.72;;;1.90;;
14348;SDS011;7258;50.376;8.742;2022-09-09T11:56:02;7.97;;;1.80;;
14348;SDS011;7258;50.376;8.742;2022-09-09T11:58:15;6.68;;;1.70;;
14348;SDS011;7258;50.376;8.742;2022-09-09T12:00:34;3.92;;;1.55;;
14348;SDS011;7258;50.376;8.742;2022-09-09T12:02:47;4.38;;;1.70;;
14348;SDS011;7258;50.376;8.742;2022-09-09T12:04:55;5.10;;;2.15;;
14348;SDS011;7258;50.376;8.742;2022-09-09T12:07:03;4.63;;;1.90;;
14348;SDS011;7258;50.376;8.742;2022-09-09T12:09:26;4.30;;;1.95;;
14348;SDS011;7258;50.376;8.742;2022-09-09T12:11:36;7.40;;;1.60;;
14348;SDS011;7258;50.376;8.742;2022-09-09T12:13:39;5.82;;;1.77;;
14348;SDS011;7258;50.376;8.742;2022-09-09T12:15:48;7.57;;;1.95;;
14348;SDS011;7258;50.376;8.742;2022-09-09T12:17:54;3.85;;;1.67;;
14348;SDS011;7258;50.376;8.742;2022-09-09T12:20:06;3.70;;;1.80;;
14348;SDS011;7258;50.376;8.742;2022-09-09T12:22:18;6.75;;;2.03;;
14348;SDS011;7258;50.376;8.742;2022-09-09T12:24:30;4.20;;;1.90;;
14348;SDS011;7258;50.376;8.742;2022-09-09T12:26:38;4.28;;;1.70;;
14348;SDS011;7258;50.376;8.742;2022-09-09T12:28:49;3.35;;;1.70;;
14348;SDS011;7258;50.376;8.742;2022-09-09T12:31:01;4.22;;;1.50;;
14348;SDS011;7258;50.376;8.742;2022-09-09T12:33:10;4.95;;;1.65;;
14348;SDS011;7258;50.376;8.742;2022-09-09T12:35:17;3.92;;;1.58;;
14348;SDS011;7258;50.376;8.742;2022-09-09T12:37:25;4.32;;;1.58;;
14348;SDS011;7258;50.376;8.742;2022-09-09T12:39:32;5.10;;;1.65;;
14348;SDS011;7258;50.376;8.742;2022-09-09T12:41:40;2.72;;;1.35;;
14348;SDS011;7258;50.376;8.742;2022-09-09T12:43:43;6.30;;;1.83;;
14348;SDS011;7258;50.376;8.742;2022-09-09T12:45:45;3.83;;;1.50;;
14348;SDS011;7258;50.376;8.742;2022-09-09T12:47:53;4.88;;;1.95;;
14348;SDS011;7258;50.376;8.742;2022-09-09T12:49:59;5.05;;;1.73;;
14348;SDS011;7258;50.376;8.742;2022-09-09T12:52:03;3.22;;;1.40;;
14348;SDS011;7258;50.376;8.742;2022-09-09T12:54:12;3.60;;;1.60;;
14348;SDS011;7258;50.376;8.742;2022-09-09T12:56:19;2.08;;;1.23;;
14348;SDS011;7258;50.376;8.742;2022-09-09T12:58:24;3.22;;;1.40;;
14348;SDS011;7258;50.376;8.742;2022-09-09T13:00:29;3.45;;;1.23;;
14348;SDS011;7258;50.376;8.742;2022-09-09T13:02:32;4.38;;;1.20;;
14348;SDS011;7258;50.376;8.742;2022-09-09T13:04:36;5.05;;;1.33;;